Airfield :







YOU CAN JOIN US ON...

 
LOGIN :

Register | Disclaimer

   EN    FR    IT 

 









Legend :    VFR   Marginal VFR   IFR   Intensive IFR   Very Intensive IFR
Visi :
Ceiling :
>= 8 km
>= 3000ft
5 to 8 km
1000 to 3000 ft
1500m to 5 km
500 to 1000 ft
800 to 1500m
200 to 500 ft
< 800m
< 200 ft
Symbols :   Thunderstorms  Fog  Heavy snow  Heavy precipitations  Wind > 20 kt






- Airport Elevation : 203 ft
- IATA code : YQY


CYQY - Sydney

CURRENT METAR :
  • 060600Z 21007KT 15SM FEW150 M03/M05 A2988 RMK AC2 SLP121

EXPIRED METARs :
  • 060500Z 21009KT 15SM FEW240 M03/M04 A2990 RMK CI2 SLP130
  • 060400Z 20008KT 15SM FEW240 M03/M04 A2992 RMK CI2 SLP138

TAF TAF CYQY
Valid from the 06 at 06:00 until the 06 at 18:00 UTC


060539Z 0606/0618 21010KT P6SM SCT120 BKN240
FM061000 21015KT P6SM FEW005 BKN140
PROB30 0610/0614 4SM BR BKN005
FM061400 22015KT P6SM -RA OVC030
TEMPO 0614/0618 4SM -SHRA BR OVC015
BECMG 0616/0618 27012G22KT RMK NXT FCST BY 061200Z



MET'MAP, your aeronautical weather chart ! - Copyright ORBIFLY December 2007 - Disclaimer

ORBIFLY MET'MAP TEAM :

Programming & Development : Alexandra Zaïnal
Concept & original design : Baudouin d'Aumeries
Assistance for programming : Marc-Olivier Méhu
Technical & hardware support : Manuel Goepfert

Contact : metmap@orbifly.com




SOURCES & CREDITS :

   NOAA